sensor_id;sensor_type;location;lat;lon;timestamp;temperature;humidity
11629;DHT22;5870;52.320;4.970;2022-07-15T00:01:08;19.60;99.90
11629;DHT22;5870;52.320;4.970;2022-07-15T00:03:33;19.60;99.90
11629;DHT22;5870;52.320;4.970;2022-07-15T00:05:59;19.50;99.90
11629;DHT22;5870;52.320;4.970;2022-07-15T00:08:25;19.50;99.90
11629;DHT22;5870;52.320;4.970;2022-07-15T00:10:52;19.60;99.90
11629;DHT22;5870;52.320;4.970;2022-07-15T00:13:18;19.70;99.90
11629;DHT22;5870;52.320;4.970;2022-07-15T00:15:44;19.60;99.90
11629;DHT22;5870;52.320;4.970;2022-07-15T00:18:09;19.50;99.90
11629;DHT22;5870;52.320;4.970;2022-07-15T00:20:35;19.50;99.90
11629;DHT22;5870;52.320;4.970;2022-07-15T00:23:05;19.40;99.90
11629;DHT22;5870;52.320;4.970;2022-07-15T00:25:32;19.40;99.90
11629;DHT22;5870;52.320;4.970;2022-07-15T00:28:05;19.30;99.90
11629;DHT22;5870;52.320;4.970;2022-07-15T00:30:34;19.40;99.90
11629;DHT22;5870;52.320;4.970;2022-07-15T00:33:00;19.30;99.90
11629;DHT22;5870;52.320;4.970;2022-07-15T00:35:26;19.30;99.90
11629;DHT22;5870;52.320;4.970;2022-07-15T00:37:52;19.20;99.90
11629;DHT22;5870;52.320;4.970;2022-07-15T00:40:18;19.20;99.90
11629;DHT22;5870;52.320;4.970;2022-07-15T00:42:44;19.20;99.90
11629;DHT22;5870;52.320;4.970;2022-07-15T00:45:11;19.10;99.90
11629;DHT22;5870;52.320;4.970;2022-07-15T00:47:38;19.00;99.90
11629;DHT22;5870;52.320;4.970;2022-07-15T00:50:03;19.00;99.90
11629;DHT22;5870;52.320;4.970;2022-07-15T00:52:29;18.90;99.90
11629;DHT22;5870;52.320;4.970;2022-07-15T00:54:58;18.80;99.90
11629;DHT22;5870;52.320;4.970;2022-07-15T00:57:26;18.80;99.90
11629;DHT22;5870;52.320;4.970;2022-07-15T00:59:53;18.90;99.90
11629;DHT22;5870;52.320;4.970;2022-07-15T01:02:20;18.80;99.90
11629;DHT22;5870;52.320;4.970;2022-07-15T01:04:47;18.90;99.90
11629;DHT22;5870;52.320;4.970;2022-07-15T01:07:13;18.80;99.90
11629;DHT22;5870;52.320;4.970;2022-07-15T01:09:39;18.90;99.90
11629;DHT22;5870;52.320;4.970;2022-07-15T01:12:05;18.80;99.90
11629;DHT22;5870;52.320;4.970;2022-07-15T01:14:31;18.80;99.90
11629;DHT22;5870;52.320;4.970;2022-07-15T01:16:56;18.80;99.90
11629;DHT22;5870;52.320;4.970;2022-07-15T01:19:22;18.90;99.90
11629;DHT22;5870;52.320;4.970;2022-07-15T01:21:47;18.80;99.90
11629;DHT22;5870;52.320;4.970;2022-07-15T01:24:13;18.80;99.90
11629;DHT22;5870;52.320;4.970;2022-07-15T01:26:39;18.90;99.90
11629;DHT22;5870;52.320;4.970;2022-07-15T01:29:04;18.90;99.90
11629;DHT22;5870;52.320;4.970;2022-07-15T01:31:30;18.90;99.90
11629;DHT22;5870;52.320;4.970;2022-07-15T01:33:55;18.70;99.90
11629;DHT22;5870;52.320;4.970;2022-07-15T01:36:21;18.70;99.90
11629;DHT22;5870;52.320;4.970;2022-07-15T01:38:47;18.60;99.90
11629;DHT22;5870;52.320;4.970;2022-07-15T01:41:13;18.60;99.90
11629;DHT22;5870;52.320;4.970;2022-07-15T01:43:39;18.70;99.90
11629;DHT22;5870;52.320;4.970;2022-07-15T01:46:04;18.60;99.90
11629;DHT22;5870;52.320;4.970;2022-07-15T01:48:30;18.60;99.90
11629;DHT22;5870;52.320;4.970;2022-07-15T01:51:14;18.70;99.90
11629;DHT22;5870;52.320;4.970;2022-07-15T01:53:40;18.50;99.90
11629;DHT22;5870;52.320;4.970;2022-07-15T01:56:06;18.50;99.90
11629;DHT22;5870;52.320;4.970;2022-07-15T01:58:31;18.50;99.90
11629;DHT22;5870;52.320;4.970;2022-07-15T02:00:57;18.40;99.90
11629;DHT22;5870;52.320;4.970;2022-07-15T02:03:22;18.40;99.90
11629;DHT22;5870;52.320;4.970;2022-07-15T02:05:48;18.40;99.90
11629;DHT22;5870;52.320;4.970;2022-07-15T02:08:13;18.30;99.90
11629;DHT22;5870;52.320;4.970;2022-07-15T02:10:39;18.30;99.90
11629;DHT22;5870;52.320;4.970;2022-07-15T02:13:09;18.20;99.90
11629;DHT22;5870;52.320;4.970;2022-07-15T02:15:35;18.30;99.90
11629;DHT22;5870;52.320;4.970;2022-07-15T02:18:00;18.40;99.90
11629;DHT22;5870;52.320;4.970;2022-07-15T02:20:27;18.60;99.90
11629;DHT22;5870;52.320;4.970;2022-07-15T02:22:53;18.50;99.90
11629;DHT22;5870;52.320;4.970;2022-07-15T02:25:23;18.60;99.90
11629;DHT22;5870;52.320;4.970;2022-07-15T02:27:54;18.70;99.90
11629;DHT22;5870;52.320;4.970;2022-07-15T02:30:26;18.60;99.90
11629;DHT22;5870;52.320;4.970;2022-07-15T02:32:52;18.70;99.90
11629;DHT22;5870;52.320;4.970;2022-07-15T02:35:18;18.70;99.90
11629;DHT22;5870;52.320;4.970;2022-07-15T02:37:44;18.80;99.90
11629;DHT22;5870;52.320;4.970;2022-07-15T02:40:10;18.70;99.90
11629;DHT22;5870;52.320;4.970;2022-07-15T02:42:36;18.80;99.90
11629;DHT22;5870;52.320;4.970;2022-07-15T02:45:02;18.80;99.90
11629;DHT22;5870;52.320;4.970;2022-07-15T02:47:28;18.80;99.90
11629;DHT22;5870;52.320;4.970;2022-07-15T02:49:54;18.80;99.90
11629;DHT22;5870;52.320;4.970;2022-07-15T02:52:19;18.80;99.90
11629;DHT22;5870;52.320;4.970;2022-07-15T02:54:45;18.80;99.90
11629;DHT22;5870;52.320;4.970;2022-07-15T02:57:10;18.80;99.90
11629;DHT22;5870;52.320;4.970;2022-07-15T02:59:36;18.70;99.90
11629;DHT22;5870;52.320;4.970;2022-07-15T03:02:02;18.70;99.90
11629;DHT22;5870;52.320;4.970;2022-07-15T03:04:27;18.70;99.90
11629;DHT22;5870;52.320;4.970;2022-07-15T03:06:53;18.70;99.90
11629;DHT22;5870;52.320;4.970;2022-07-15T03:09:19;18.70;99.90
11629;DHT22;5870;52.320;4.970;2022-07-15T03:11:44;18.70;99.90
11629;DHT22;5870;52.320;4.970;2022-07-15T03:14:10;18.60;99.90
11629;DHT22;5870;52.320;4.970;2022-07-15T03:16:36;18.60;99.90
11629;DHT22;5870;52.320;4.970;2022-07-15T03:19:01;18.50;99.90
11629;DHT22;5870;52.320;4.970;2022-07-15T03:21:27;18.30;99.90
11629;DHT22;5870;52.320;4.970;2022-07-15T03:23:53;18.40;99.90
11629;DHT22;5870;52.320;4.970;2022-07-15T03:26:19;18.50;99.90
11629;DHT22;5870;52.320;4.970;2022-07-15T03:28:46;18.60;99.90
11629;DHT22;5870;52.320;4.970;2022-07-15T03:31:12;18.50;99.90
11629;DHT22;5870;52.320;4.970;2022-07-15T03:33:37;18.60;99.90
11629;DHT22;5870;52.320;4.970;2022-07-15T03:36:03;18.60;99.90
11629;DHT22;5870;52.320;4.970;2022-07-15T03:38:31;18.60;99.90
11629;DHT22;5870;52.320;4.970;2022-07-15T03:40:56;18.60;99.90
11629;DHT22;5870;52.320;4.970;2022-07-15T03:43:22;18.60;99.90
11629;DHT22;5870;52.320;4.970;2022-07-15T03:45:52;18.60;99.90
11629;DHT22;5870;52.320;4.970;2022-07-15T03:48:18;18.70;99.90
11629;DHT22;5870;52.320;4.970;2022-07-15T03:50:44;18.70;99.90
11629;DHT22;5870;52.320;4.970;2022-07-15T03:53:09;18.80;99.90
11629;DHT22;5870;52.320;4.970;2022-07-15T03:55:35;18.80;99.90
11629;DHT22;5870;52.320;4.970;2022-07-15T03:58:01;18.80;99.90
11629;DHT22;5870;52.320;4.970;2022-07-15T04:00:27;18.80;99.90
11629;DHT22;5870;52.320;4.970;2022-07-15T04:02:53;18.80;99.90
11629;DHT22;5870;52.320;4.970;2022-07-15T04:05:18;18.80;99.90
11629;DHT22;5870;52.320;4.970;2022-07-15T04:07:44;18.90;99.90
11629;DHT22;5870;52.320;4.970;2022-07-15T04:10:10;18.80;99.90
11629;DHT22;5870;52.320;4.970;2022-07-15T04:12:35;18.80;99.90
11629;DHT22;5870;52.320;4.970;2022-07-15T04:15:01;18.80;99.90
11629;DHT22;5870;52.320;4.970;2022-07-15T04:17:26;18.80;99.90
11629;DHT22;5870;52.320;4.970;2022-07-15T04:19:52;18.90;99.90
11629;DHT22;5870;52.320;4.970;2022-07-15T04:22:17;18.80;99.90
11629;DHT22;5870;52.320;4.970;2022-07-15T04:24:43;18.80;99.90
11629;DHT22;5870;52.320;4.970;2022-07-15T04:27:08;18.80;99.90
11629;DHT22;5870;52.320;4.970;2022-07-15T04:29:34;18.90;99.90
11629;DHT22;5870;52.320;4.970;2022-07-15T04:32:01;18.90;99.90
11629;DHT22;5870;52.320;4.970;2022-07-15T04:34:27;18.80;99.90
11629;DHT22;5870;52.320;4.970;2022-07-15T04:36:52;18.70;99.90
11629;DHT22;5870;52.320;4.970;2022-07-15T04:39:18;18.80;99.90
11629;DHT22;5870;52.320;4.970;2022-07-15T04:41:43;18.70;99.90
11629;DHT22;5870;52.320;4.970;2022-07-15T04:44:09;18.70;99.90
11629;DHT22;5870;52.320;4.970;2022-07-15T04:46:35;18.70;99.90
11629;DHT22;5870;52.320;4.970;2022-07-15T04:49:00;18.70;99.90
11629;DHT22;5870;52.320;4.970;2022-07-15T04:51:44;18.70;99.90
11629;DHT22;5870;52.320;4.970;2022-07-15T04:54:10;18.70;99.90
11629;DHT22;5870;52.320;4.970;2022-07-15T04:56:35;18.70;99.90
11629;DHT22;5870;52.320;4.970;2022-07-15T04:59:01;18.80;99.90
11629;DHT22;5870;52.320;4.970;2022-07-15T05:01:27;18.80;99.90
11629;DHT22;5870;52.320;4.970;2022-07-15T05:03:52;18.80;99.90
11629;DHT22;5870;52.320;4.970;2022-07-15T05:06:18;18.70;99.90
11629;DHT22;5870;52.320;4.970;2022-07-15T05:08:43;18.80;99.90
11629;DHT22;5870;52.320;4.970;2022-07-15T05:11:09;18.80;99.90
11629;DHT22;5870;52.320;4.970;2022-07-15T05:13:36;18.80;99.90
11629;DHT22;5870;52.320;4.970;2022-07-15T05:16:03;18.80;99.90
11629;DHT22;5870;52.320;4.970;2022-07-15T05:18:29;18.70;99.90
11629;DHT22;5870;52.320;4.970;2022-07-15T05:20:54;18.50;99.90
11629;DHT22;5870;52.320;4.970;2022-07-15T05:23:20;18.50;99.90
11629;DHT22;5870;52.320;4.970;2022-07-15T05:25:46;18.50;99.90
11629;DHT22;5870;52.320;4.970;2022-07-15T05:28:11;18.50;99.90
11629;DHT22;5870;52.320;4.970;2022-07-15T05:30:37;18.40;99.90
11629;DHT22;5870;52.320;4.970;2022-07-15T05:33:03;18.50;99.90
11629;DHT22;5870;52.320;4.970;2022-07-15T05:35:29;18.70;99.90
11629;DHT22;5870;52.320;4.970;2022-07-15T05:37:54;18.80;99.90
11629;DHT22;5870;52.320;4.970;2022-07-15T05:40:20;18.90;99.90
11629;DHT22;5870;52.320;4.970;2022-07-15T05:42:46;18.90;99.90
11629;DHT22;5870;52.320;4.970;2022-07-15T05:45:12;19.00;99.90
11629;DHT22;5870;52.320;4.970;2022-07-15T05:47:38;19.00;99.90
11629;DHT22;5870;52.320;4.970;2022-07-15T05:50:04;19.00;99.90
11629;DHT22;5870;52.320;4.970;2022-07-15T05:52:30;19.10;99.90
11629;DHT22;5870;52.320;4.970;2022-07-15T05:54:55;19.10;99.90
11629;DHT22;5870;52.320;4.970;2022-07-15T05:57:21;19.10;99.90
11629;DHT22;5870;52.320;4.970;2022-07-15T05:59:46;19.20;99.90
11629;DHT22;5870;52.320;4.970;2022-07-15T06:02:12;19.20;99.90
11629;DHT22;5870;52.320;4.970;2022-07-15T06:04:39;19.30;99.90
11629;DHT22;5870;52.320;4.970;2022-07-15T06:07:05;19.30;99.90
11629;DHT22;5870;52.320;4.970;2022-07-15T06:09:31;19.20;99.90
11629;DHT22;5870;52.320;4.970;2022-07-15T06:11:57;19.20;99.90
11629;DHT22;5870;52.320;4.970;2022-07-15T06:14:24;19.20;99.90
11629;DHT22;5870;52.320;4.970;2022-07-15T06:16:49;19.20;99.90
11629;DHT22;5870;52.320;4.970;2022-07-15T06:19:15;19.30;99.90
11629;DHT22;5870;52.320;4.970;2022-07-15T06:21:41;19.40;99.90
11629;DHT22;5870;52.320;4.970;2022-07-15T06:24:06;19.40;99.90
11629;DHT22;5870;52.320;4.970;2022-07-15T06:26:32;19.50;99.90
11629;DHT22;5870;52.320;4.970;2022-07-15T06:28:58;19.60;99.90
11629;DHT22;5870;52.320;4.970;2022-07-15T06:31:23;19.70;99.90
11629;DHT22;5870;52.320;4.970;2022-07-15T06:33:49;19.60;99.90
11629;DHT22;5870;52.320;4.970;2022-07-15T06:36:15;19.50;99.90
11629;DHT22;5870;52.320;4.970;2022-07-15T06:38:40;19.40;99.90
11629;DHT22;5870;52.320;4.970;2022-07-15T06:41:06;19.30;99.90
11629;DHT22;5870;52.320;4.970;2022-07-15T06:43:31;19.20;99.90
11629;DHT22;5870;52.320;4.970;2022-07-15T06:45:57;19.30;99.90
11629;DHT22;5870;52.320;4.970;2022-07-15T06:48:23;19.30;99.90
11629;DHT22;5870;52.320;4.970;2022-07-15T06:50:49;19.20;99.90
11629;DHT22;5870;52.320;4.970;2022-07-15T06:53:14;19.30;99.90
11629;DHT22;5870;52.320;4.970;2022-07-15T06:55:40;19.40;99.90
11629;DHT22;5870;52.320;4.970;2022-07-15T06:58:05;19.70;99.90
11629;DHT22;5870;52.320;4.970;2022-07-15T07:00:31;19.90;99.90
11629;DHT22;5870;52.320;4.970;2022-07-15T07:02:56;20.00;99.90
11629;DHT22;5870;52.320;4.970;2022-07-15T07:05:22;19.90;99.90
11629;DHT22;5870;52.320;4.970;2022-07-15T07:07:48;19.90;99.90
11629;DHT22;5870;52.320;4.970;2022-07-15T07:10:13;20.00;99.90
11629;DHT22;5870;52.320;4.970;2022-07-15T07:12:39;20.10;99.90
11629;DHT22;5870;52.320;4.970;2022-07-15T07:15:05;20.30;99.90
11629;DHT22;5870;52.320;4.970;2022-07-15T07:17:32;20.50;99.90
11629;DHT22;5870;52.320;4.970;2022-07-15T07:19:58;20.50;99.90
11629;DHT22;5870;52.320;4.970;2022-07-15T07:22:24;20.30;99.90
11629;DHT22;5870;52.320;4.970;2022-07-15T07:24:49;20.30;99.90
11629;DHT22;5870;52.320;4.970;2022-07-15T07:27:15;20.40;99.90
11629;DHT22;5870;52.320;4.970;2022-07-15T07:29:40;20.40;99.90
11629;DHT22;5870;52.320;4.970;2022-07-15T07:32:06;20.40;99.90
11629;DHT22;5870;52.320;4.970;2022-07-15T07:34:32;20.50;99.90
11629;DHT22;5870;52.320;4.970;2022-07-15T07:36:57;20.50;99.90
11629;DHT22;5870;52.320;4.970;2022-07-15T07:39:23;20.50;99.90
11629;DHT22;5870;52.320;4.970;2022-07-15T07:41:49;20.60;99.90
11629;DHT22;5870;52.320;4.970;2022-07-15T07:44:21;20.60;99.90
11629;DHT22;5870;52.320;4.970;2022-07-15T07:46:47;20.40;99.90
11629;DHT22;5870;52.320;4.970;2022-07-15T07:49:13;20.30;99.90
11629;DHT22;5870;52.320;4.970;2022-07-15T07:51:39;20.40;99.90
11629;DHT22;5870;52.320;4.970;2022-07-15T07:54:06;20.30;99.90
11629;DHT22;5870;52.320;4.970;2022-07-15T07:56:32;20.30;99.90
11629;DHT22;5870;52.320;4.970;2022-07-15T07:58:58;20.30;99.90
11629;DHT22;5870;52.320;4.970;2022-07-15T08:01:23;20.30;97.90
11629;DHT22;5870;52.320;4.970;2022-07-15T08:03:49;20.30;97.60
11629;DHT22;5870;52.320;4.970;2022-07-15T08:06:16;20.30;97.50
11629;DHT22;5870;52.320;4.970;2022-07-15T08:08:43;20.30;98.50
11629;DHT22;5870;52.320;4.970;2022-07-15T08:11:09;20.30;99.40
11629;DHT22;5870;52.320;4.970;2022-07-15T08:13:36;20.40;99.10
11629;DHT22;5870;52.320;4.970;2022-07-15T08:16:02;20.60;98.80
11629;DHT22;5870;52.320;4.970;2022-07-15T08:18:27;20.80;98.80
11629;DHT22;5870;52.320;4.970;2022-07-15T08:20:53;20.90;98.80
11629;DHT22;5870;52.320;4.970;2022-07-15T08:23:19;21.00;98.70
11629;DHT22;5870;52.320;4.970;2022-07-15T08:25:49;20.90;98.90
11629;DHT22;5870;52.320;4.970;2022-07-15T08:28:15;20.80;99.00
11629;DHT22;5870;52.320;4.970;2022-07-15T08:30:41;20.60;99.70
11629;DHT22;5870;52.320;4.970;2022-07-15T08:33:07;20.50;99.90
11629;DHT22;5870;52.320;4.970;2022-07-15T08:35:32;20.30;99.90
11629;DHT22;5870;52.320;4.970;2022-07-15T08:38:03;20.30;99.90
11629;DHT22;5870;52.320;4.970;2022-07-15T08:40:31;20.40;99.90
11629;DHT22;5870;52.320;4.970;2022-07-15T08:42:57;20.20;99.90
11629;DHT22;5870;52.320;4.970;2022-07-15T08:45:22;20.20;99.90
11629;DHT22;5870;52.320;4.970;2022-07-15T08:47:51;20.10;99.90
11629;DHT22;5870;52.320;4.970;2022-07-15T08:50:19;20.10;99.90
11629;DHT22;5870;52.320;4.970;2022-07-15T08:52:46;20.30;99.90
11629;DHT22;5870;52.320;4.970;2022-07-15T08:55:13;20.50;99.90
11629;DHT22;5870;52.320;4.970;2022-07-15T08:57:44;20.50;99.90
11629;DHT22;5870;52.320;4.970;2022-07-15T09:00:10;20.50;99.90
11629;DHT22;5870;52.320;4.970;2022-07-15T09:02:38;20.40;99.90
11629;DHT22;5870;52.320;4.970;2022-07-15T09:05:27;20.40;99.90
11629;DHT22;5870;52.320;4.970;2022-07-15T09:13:21;20.70;99.90
11629;DHT22;5870;52.320;4.970;2022-07-15T09:15:48;20.80;99.90
11629;DHT22;5870;52.320;4.970;2022-07-15T09:18:17;21.00;99.90
11629;DHT22;5870;52.320;4.970;2022-07-15T09:20:44;20.70;99.90
11629;DHT22;5870;52.320;4.970;2022-07-15T09:23:13;20.70;99.90
11629;DHT22;5870;52.320;4.970;2022-07-15T09:25:43;20.80;99.90
11629;DHT22;5870;52.320;4.970;2022-07-15T09:28:09;20.70;99.90
11629;DHT22;5870;52.320;4.970;2022-07-15T09:30:37;21.00;99.90
11629;DHT22;5870;52.320;4.970;2022-07-15T09:33:32;21.20;99.90
11629;DHT22;5870;52.320;4.970;2022-07-15T09:36:07;21.10;99.90
11629;DHT22;5870;52.320;4.970;2022-07-15T09:46:22;20.70;99.90
11629;DHT22;5870;52.320;4.970;2022-07-15T09:48:49;20.80;99.10
11629;DHT22;5870;52.320;4.970;2022-07-15T09:51:16;20.80;98.60
11629;DHT22;5870;52.320;4.970;2022-07-15T09:53:42;20.80;98.80
11629;DHT22;5870;52.320;4.970;2022-07-15T09:56:16;20.80;99.10
11629;DHT22;5870;52.320;4.970;2022-07-15T09:58:46;20.80;99.10
11629;DHT22;5870;52.320;4.970;2022-07-15T10:01:12;20.80;98.60
11629;DHT22;5870;52.320;4.970;2022-07-15T10:03:38;20.80;98.10
11629;DHT22;5870;52.320;4.970;2022-07-15T10:06:04;20.80;98.10
11629;DHT22;5870;52.320;4.970;2022-07-15T10:08:31;20.80;98.30
11629;DHT22;5870;52.320;4.970;2022-07-15T10:10:58;20.70;98.00
11629;DHT22;5870;52.320;4.970;2022-07-15T10:13:44;20.50;97.90
11629;DHT22;5870;52.320;4.970;2022-07-15T10:19:23;20.60;98.50
11629;DHT22;5870;52.320;4.970;2022-07-15T10:28:01;20.90;98.20
11629;DHT22;5870;52.320;4.970;2022-07-15T10:30:28;21.00;98.50
11629;DHT22;5870;52.320;4.970;2022-07-15T10:35:48;20.90;98.00
11629;DHT22;5870;52.320;4.970;2022-07-15T10:41:05;20.60;98.40
11629;DHT22;5870;52.320;4.970;2022-07-15T10:43:42;20.60;98.60
11629;DHT22;5870;52.320;4.970;2022-07-15T10:51:44;21.10;97.60
11629;DHT22;5870;52.320;4.970;2022-07-15T10:56:56;21.40;98.00
11629;DHT22;5870;52.320;4.970;2022-07-15T10:59:24;21.50;97.40
11629;DHT22;5870;52.320;4.970;2022-07-15T11:02:13;21.50;97.00
11629;DHT22;5870;52.320;4.970;2022-07-15T11:04:40;21.40;97.20
11629;DHT22;5870;52.320;4.970;2022-07-15T11:15:10;21.20;98.00
11629;DHT22;5870;52.320;4.970;2022-07-15T11:17:43;21.20;98.50
11629;DHT22;5870;52.320;4.970;2022-07-15T11:20:15;21.10;98.10
11629;DHT22;5870;52.320;4.970;2022-07-15T11:22:47;21.10;98.50
11629;DHT22;5870;52.320;4.970;2022-07-15T11:28:10;21.00;98.90
11629;DHT22;5870;52.320;4.970;2022-07-15T11:30:46;20.90;99.40
11629;DHT22;5870;52.320;4.970;2022-07-15T11:33:15;20.70;99.80
11629;DHT22;5870;52.320;4.970;2022-07-15T11:35:50;20.60;99.90
11629;DHT22;5870;52.320;4.970;2022-07-15T11:38:17;20.50;99.90
11629;DHT22;5870;52.320;4.970;2022-07-15T11:40:46;20.60;99.90
11629;DHT22;5870;52.320;4.970;2022-07-15T11:43:31;20.70;99.90
11629;DHT22;5870;52.320;4.970;2022-07-15T11:46:15;20.80;99.90
11629;DHT22;5870;52.320;4.970;2022-07-15T11:48:41;20.80;99.90
11629;DHT22;5870;52.320;4.970;2022-07-15T11:51:08;20.80;99.90
11629;DHT22;5870;52.320;4.970;2022-07-15T11:53:41;20.90;99.80
11629;DHT22;5870;52.320;4.970;2022-07-15T11:56:09;20.90;99.30
11629;DHT22;5870;52.320;4.970;2022-07-15T12:01:16;21.00;99.20
11629;DHT22;5870;52.320;4.970;2022-07-15T12:03:44;21.10;99.20
11629;DHT22;5870;52.320;4.970;2022-07-15T12:06:19;21.20;99.00
11629;DHT22;5870;52.320;4.970;2022-07-15T12:08:51;21.30;99.00
11629;DHT22;5870;52.320;4.970;2022-07-15T12:11:24;21.20;98.80
11629;DHT22;5870;52.320;4.970;2022-07-15T12:14:05;21.30;98.90
11629;DHT22;5870;52.320;4.970;2022-07-15T12:16:43;21.40;99.20
11629;DHT22;5870;52.320;4.970;2022-07-15T12:21:39;21.30;99.00
11629;DHT22;5870;52.320;4.970;2022-07-15T12:24:12;21.30;99.40
11629;DHT22;5870;52.320;4.970;2022-07-15T12:26:42;21.30;99.40
11629;DHT22;5870;52.320;4.970;2022-07-15T12:29:26;21.20;99.80
11629;DHT22;5870;52.320;4.970;2022-07-15T12:31:55;21.30;99.20
11629;DHT22;5870;52.320;4.970;2022-07-15T12:34:22;21.50;98.90
11629;DHT22;5870;52.320;4.970;2022-07-15T12:36:58;21.50;98.70
11629;DHT22;5870;52.320;4.970;2022-07-15T12:39:24;21.60;98.40
11629;DHT22;5870;52.320;4.970;2022-07-15T12:42:04;21.60;98.40
11629;DHT22;5870;52.320;4.970;2022-07-15T12:44:31;21.60;98.50
11629;DHT22;5870;52.320;4.970;2022-07-15T12:46:59;21.80;98.50
11629;DHT22;5870;52.320;4.970;2022-07-15T12:49:50;21.90;98.10
11629;DHT22;5870;52.320;4.970;2022-07-15T12:52:36;22.00;97.70
11629;DHT22;5870;52.320;4.970;2022-07-15T12:55:32;22.10;97.70
11629;DHT22;5870;52.320;4.970;2022-07-15T12:58:06;21.90;98.00
11629;DHT22;5870;52.320;4.970;2022-07-15T13:00:33;21.90;98.20
11629;DHT22;5870;52.320;4.970;2022-07-15T13:03:06;21.80;98.10
11629;DHT22;5870;52.320;4.970;2022-07-15T13:05:40;21.70;98.60
11629;DHT22;5870;52.320;4.970;2022-07-15T13:08:10;21.70;99.00
11629;DHT22;5870;52.320;4.970;2022-07-15T13:10:37;21.80;99.10
11629;DHT22;5870;52.320;4.970;2022-07-15T13:13:04;21.80;99.30
11629;DHT22;5870;52.320;4.970;2022-07-15T13:15:31;21.70;99.20
11629;DHT22;5870;52.320;4.970;2022-07-15T13:17:57;21.70;99.00
11629;DHT22;5870;52.320;4.970;2022-07-15T13:20:23;21.70;99.60
11629;DHT22;5870;52.320;4.970;2022-07-15T13:22:49;21.70;99.80
11629;DHT22;5870;52.320;4.970;2022-07-15T13:25:15;21.70;99.90
11629;DHT22;5870;52.320;4.970;2022-07-15T13:27:41;21.70;99.80
11629;DHT22;5870;52.320;4.970;2022-07-15T13:30:07;21.60;99.90
11629;DHT22;5870;52.320;4.970;2022-07-15T13:32:33;21.70;99.90
11629;DHT22;5870;52.320;4.970;2022-07-15T13:34:59;21.80;99.90
11629;DHT22;5870;52.320;4.970;2022-07-15T13:37:25;21.80;99.90
11629;DHT22;5870;52.320;4.970;2022-07-15T13:39:50;21.70;99.90
11629;DHT22;5870;52.320;4.970;2022-07-15T13:42:16;21.60;99.90
11629;DHT22;5870;52.320;4.970;2022-07-15T13:44:41;21.50;99.90
11629;DHT22;5870;52.320;4.970;2022-07-15T13:47:07;21.40;99.90
11629;DHT22;5870;52.320;4.970;2022-07-15T13:49:33;21.50;99.90
11629;DHT22;5870;52.320;4.970;2022-07-15T13:52:17;21.80;99.90
11629;DHT22;5870;52.320;4.970;2022-07-15T13:54:42;22.00;99.90
11629;DHT22;5870;52.320;4.970;2022-07-15T13:57:08;22.10;99.90
11629;DHT22;5870;52.320;4.970;2022-07-15T13:59:34;22.20;99.90
11629;DHT22;5870;52.320;4.970;2022-07-15T14:01:59;22.20;99.90
11629;DHT22;5870;52.320;4.970;2022-07-15T14:04:25;22.10;99.90
11629;DHT22;5870;52.320;4.970;2022-07-15T14:06:51;22.10;99.90
11629;DHT22;5870;52.320;4.970;2022-07-15T14:09:16;22.10;99.90
11629;DHT22;5870;52.320;4.970;2022-07-15T14:11:42;22.30;99.90
11629;DHT22;5870;52.320;4.970;2022-07-15T14:14:07;22.50;99.90
11629;DHT22;5870;52.320;4.970;2022-07-15T14:16:33;22.40;99.90
11629;DHT22;5870;52.320;4.970;2022-07-15T14:18:59;22.30;99.90
11629;DHT22;5870;52.320;4.970;2022-07-15T14:21:24;22.20;99.90
11629;DHT22;5870;52.320;4.970;2022-07-15T14:23:50;22.20;99.90
11629;DHT22;5870;52.320;4.970;2022-07-15T14:26:16;22.00;99.90
11629;DHT22;5870;52.320;4.970;2022-07-15T14:28:42;22.00;99.90
11629;DHT22;5870;52.320;4.970;2022-07-15T14:31:09;22.10;99.90
11629;DHT22;5870;52.320;4.970;2022-07-15T14:33:39;22.10;99.90
11629;DHT22;5870;52.320;4.970;2022-07-15T14:36:06;22.10;99.90
11629;DHT22;5870;52.320;4.970;2022-07-15T14:38:32;22.20;99.90
11629;DHT22;5870;52.320;4.970;2022-07-15T14:40:57;22.20;99.90
11629;DHT22;5870;52.320;4.970;2022-07-15T14:43:23;22.30;99.90
11629;DHT22;5870;52.320;4.970;2022-07-15T14:45:49;22.40;99.90
11629;DHT22;5870;52.320;4.970;2022-07-15T14:48:14;22.20;99.90
11629;DHT22;5870;52.320;4.970;2022-07-15T14:50:40;22.00;99.90
11629;DHT22;5870;52.320;4.970;2022-07-15T14:53:06;22.20;99.90
11629;DHT22;5870;52.320;4.970;2022-07-15T14:55:31;22.00;99.90
11629;DHT22;5870;52.320;4.970;2022-07-15T14:57:57;22.10;99.90
11629;DHT22;5870;52.320;4.970;2022-07-15T15:00:23;22.40;99.90
11629;DHT22;5870;52.320;4.970;2022-07-15T15:02:48;22.40;99.90
11629;DHT22;5870;52.320;4.970;2022-07-15T15:05:14;22.30;99.90
11629;DHT22;5870;52.320;4.970;2022-07-15T15:07:40;22.20;99.90
11629;DHT22;5870;52.320;4.970;2022-07-15T15:10:06;22.00;99.90
11629;DHT22;5870;52.320;4.970;2022-07-15T15:12:32;21.90;99.90
11629;DHT22;5870;52.320;4.970;2022-07-15T15:14:58;21.70;99.90
11629;DHT22;5870;52.320;4.970;2022-07-15T15:17:23;21.70;99.90
11629;DHT22;5870;52.320;4.970;2022-07-15T15:19:49;21.80;99.90
11629;DHT22;5870;52.320;4.970;2022-07-15T15:22:14;22.00;99.90
11629;DHT22;5870;52.320;4.970;2022-07-15T15:24:40;22.00;99.90
11629;DHT22;5870;52.320;4.970;2022-07-15T15:27:06;22.10;99.90
11629;DHT22;5870;52.320;4.970;2022-07-15T15:29:35;22.20;99.90
11629;DHT22;5870;52.320;4.970;2022-07-15T15:32:01;22.30;99.00
11629;DHT22;5870;52.320;4.970;2022-07-15T15:34:28;22.40;98.80
11629;DHT22;5870;52.320;4.970;2022-07-15T15:36:55;22.60;99.00
11629;DHT22;5870;52.320;4.970;2022-07-15T15:39:21;22.80;98.20
11629;DHT22;5870;52.320;4.970;2022-07-15T15:41:47;22.90;98.10
11629;DHT22;5870;52.320;4.970;2022-07-15T15:44:13;23.10;98.20
11629;DHT22;5870;52.320;4.970;2022-07-15T15:46:39;23.20;98.00
11629;DHT22;5870;52.320;4.970;2022-07-15T15:49:05;23.50;97.60
11629;DHT22;5870;52.320;4.970;2022-07-15T15:51:31;23.70;97.10
11629;DHT22;5870;52.320;4.970;2022-07-15T15:53:56;23.70;97.10
11629;DHT22;5870;52.320;4.970;2022-07-15T15:56:22;23.50;97.90
11629;DHT22;5870;52.320;4.970;2022-07-15T15:58:48;23.60;98.00
11629;DHT22;5870;52.320;4.970;2022-07-15T16:01:14;23.50;98.20
11629;DHT22;5870;52.320;4.970;2022-07-15T16:03:39;23.40;97.70
11629;DHT22;5870;52.320;4.970;2022-07-15T16:06:05;23.30;97.50
11629;DHT22;5870;52.320;4.970;2022-07-15T16:08:30;23.20;98.30
11629;DHT22;5870;52.320;4.970;2022-07-15T16:10:56;23.10;98.20
11629;DHT22;5870;52.320;4.970;2022-07-15T16:13:22;23.10;98.30
11629;DHT22;5870;52.320;4.970;2022-07-15T16:15:47;23.10;98.30
11629;DHT22;5870;52.320;4.970;2022-07-15T16:18:13;23.00;98.20
11629;DHT22;5870;52.320;4.970;2022-07-15T16:20:39;23.10;98.50
11629;DHT22;5870;52.320;4.970;2022-07-15T16:23:04;23.20;97.20
11629;DHT22;5870;52.320;4.970;2022-07-15T16:25:37;23.40;96.70
11629;DHT22;5870;52.320;4.970;2022-07-15T16:28:08;23.40;96.30
11629;DHT22;5870;52.320;4.970;2022-07-15T16:30:37;23.30;96.40
11629;DHT22;5870;52.320;4.970;2022-07-15T16:33:03;23.20;96.30
11629;DHT22;5870;52.320;4.970;2022-07-15T16:35:31;23.20;96.20
11629;DHT22;5870;52.320;4.970;2022-07-15T16:37:58;23.20;96.50